Morgan Park, Minnesota
Current Conditions -  °F | °C
As of 3:35 AM on Thursday 27 Nov 2014 (Local Time) from KSUW Reporting Station
Clear Clear  
Wind Chill: -17°   Ceiling: Unl
Heat Index: -2°   Visibility: 10mi
Dew Point: -8°   Wind: 8mph
Humidity: 78%   Direction: 320°NW
Pressure: 30.48"   Gusts: NA
Location:  46.6753°N, 92.2408°W
Report Text: KSUW 270935Z AUTO 32007KT 10SM CLR M19/M22 A3048 RMK AO2 T11901220
Loading
Personal Weather Stations






























Interactive Weather Map New forecast layout! Learn more

10-Day Weather Forecast

Advertisements
Track Severe Weather on mobile